Fern, Iowa
Current Conditions -  °F | °C
As of 8:54 AM on Wednesday 26 Nov 2014 (Local Time) from KALO Reporting Station
Overcast Overcast  
Wind Chill: 16°   Ceiling: 5500
Heat Index: 26°   Visibility: 10mi
Dew Point: 21°   Wind: 10mph
Humidity: 81%   Direction: 100°E
Pressure: 30.01"   Gusts: NA
Location:  42.5787°N, 92.7634°W
Report Text: KALO 261454Z 10009KT 10SM OVC055 M03/M06 A3001 RMK AO2 SLP175 T10331061 53008
Loading
Personal Weather Stations






























Interactive Weather Map New forecast layout! Learn more

10-Day Weather Forecast

Advertisements
Track Severe Weather on mobile